ELLX Airport Information

Runway Information
Runway 06 Length 13130 ft width 148 ft Elevation 1158 ft Threshold N/A Heading 57
Runway 24 Length 13130 ft Width 148 ft Elevation 1214 ft Threshold N/A Heading 238
Airport Frequencies
Type APP Name APP Frequency 118.9 MHZ
Type ATIS Name ATIS Frequency 135.55 MHZ
Type TWR Name TWR Frequency 118.1 MHZ
Airport Navaids
Type NDB Name Luxembourg Frequency 369 KHZ
Type VOR-DME Name Luxembourg Frequency 112250 KHZ
Type NDB Name Luxembourg Frequency 346 KHZ
Airport Weather Information & NOTAM
ADDS - METARS form results

(0611 UTC 13 January 2023)
Data provider http://aviationweather.gov/metar/data/
 
METAR text: ELLX 130550Z 25011KT 9999 SCT018 BKN020 06/05 Q1009 NOSIG
Conditions at: ELLX (LUXEMBOURG (AUT), LU) observed 0550 UTC 13 January 2023
Temperature: 6.0°C (43°F)
Dewpoint: 5.0°C (41°F) [RH = 93%]
Pressure (altimeter): 29.79 inches Hg (1009.0 mb)
Winds: from the WSW (250 degrees) at 13 MPH (11 knots; 5.7 m/s)
Visibility: 6 or more miles (10+ km)
Ceiling: 2000 feet AGL
Clouds: scattered clouds at 1800 feet AGL
broken clouds at 2000 feet AGL
Weather: no significant weather observed at this time

METAR text: ELLX 130520Z 25014KT CAVOK 06/05 Q1009 NOSIG
Conditions at: ELLX (LUXEMBOURG (AUT), LU) observed 0520 UTC 13 January 2023
Temperature: 6.0°C (43°F)
Dewpoint: 5.0°C (41°F) [RH = 93%]
Pressure (altimeter): 29.79 inches Hg (1009.0 mb)
Winds: from the WSW (250 degrees) at 16 MPH (14 knots; 7.2 m/s)
Visibility: 6 or more miles (10+ km)
Ceiling: ceiling and visibility are OK
Clouds: unknown
Weather: no significant weather observed at this time

Forecast for: ELLX (LUXEMBOURG (AUT), LU)
Text: TAF ELLX 130500Z 1306/1412 24010G20KT 9999 SCT010 BKN040
Forecast period: 0600 UTC 13 January 2023 to 1200 UTC 14 January 2023
Forecast type: FROM: standard forecast or significant change
Winds: from the WSW (240 degrees) at 12 MPH (10 knots; 5.1 m/s)
gusting to 23 MPH (20 knots; 10.3 m/s)
Visibility: 6 or more miles (10+ km)
Ceiling: 4000 feet AGL
Clouds: scattered clouds at 1000 feet AGL
broken clouds at 4000 feet AGL
Weather: no significant weather forecast for this period
Text: TEMPO 1306/1314 24015G30KT -RA SCT008 BKN012
Forecast period: 0600 to 1400 UTC 13 January 2023
Forecast type: TEMPORARY: The following changes expected for less than half the time period
Winds: from the WSW (240 degrees) at 17 MPH (15 knots; 7.7 m/s)
gusting to 34 MPH (30 knots; 15.4 m/s)
Visibility: missing
Ceiling: 1200 feet AGL
Clouds: scattered clouds at 800 feet AGL
broken clouds at 1200 feet AGL
Weather: -RA  (light rain)
Text: TEMPO 1406/1412 4000 -RA BKN008
Forecast period: 0600 to 1200 UTC 14 January 2023
Forecast type: TEMPORARY: The following changes expected for less than half the time period
Visibility: 2.49 miles (4.01 km)
Ceiling: 800 feet AGL
Clouds: broken clouds at 800 feet AGL
Weather: -RA  (light rain)